Metar z pełnej godziny Komunikat METAR ze strony awiacja.imgw.pl Metar G00 EPZG METAR EPZG 240500Z 20011KT 3500 -DZ BR SCT006 BKN008 OVC011 04/04 Q1019 RERA =